Latest Weather Observations for Swanbourne

IDW60801

Issued at 8:33 pm WST Saturday 23 July 2016 (issued every 30 minutes, with the page automatically refreshed every 10 minutes)

About weather observations | Map of weather stations | Latest weather observations for WA | Other Formats
Station Details ID: 009215 Name: SWANBOURNE Lat: -31.96 Lon: 115.76 Height: 40.96 m
Data from the previous 72 hours. | See also: Recent months at Swanbourne
Date/Time
WST
Temp
°C
App
Temp
°C
Dew
Point
°C
Rel
Hum
%
Delta-T
°C
Wind Press
QNH
hPa
Press
MSL
hPa
Rain since
9am
mm
Dir  Spd
km/h
Gust
km/h
Spd
kts
Gust
kts
23/08:30pm 11.0 6.9 4.2 63 3.0 SSE 15 20 8 11 - - 3.8
23/08:00pm 11.4 7.3 4.4 62 3.2 SSE 15 24 8 13 - - 3.8
23/07:30pm 11.6 8.3 4.8 63 3.1 SSE 11 17 6 9 - - 3.8
23/07:00pm 11.9 7.8 4.4 60 3.4 SSE 15 22 8 12 - - 3.8
23/06:30pm 12.6 9.0 5.1 60 3.5 SSE 13 26 7 14 - - 3.8
23/06:00pm 12.9 9.5 5.8 62 3.3 S 13 22 7 12 - - 3.8
23/05:30pm 12.9 9.2 6.3 64 3.1 SSE 15 26 8 14 - - 3.8
23/05:00pm 12.7 9.2 7.2 69 2.7 S 15 24 8 13 - - 3.8
23/04:30pm 13.1 8.7 7.3 68 2.8 S 20 35 11 19 - - 3.8
23/04:00pm 13.4 9.3 8.5 72 2.5 S 20 33 11 18 - - 3.8
23/03:30pm 13.2 9.5 10.0 81 1.7 S 20 32 11 17 - - 3.8
23/03:00pm 12.7 11.4 12.4 98 0.2 SSE 11 22 6 12 - - 3.8
23/02:30pm 12.6 9.1 12.3 98 0.2 S 22 33 12 18 - - 3.6
23/02:00pm 15.2 10.2 9.6 69 2.9 SW 26 35 14 19 - - 0.0
23/01:30pm 16.3 11.5 8.8 61 3.9 WSW 24 32 13 17 - - 0.0
23/01:00pm 17.1 12.4 7.7 54 4.7 WSW 22 30 12 16 - - 0.0
23/12:30pm 16.6 13.0 8.3 58 4.2 WSW 17 26 9 14 - - 0.0
23/12:00pm 16.1 14.1 10.0 67 3.2 SW 11 20 6 11 - - 0.0
23/11:30am 15.9 13.0 9.6 66 3.3 SW 15 22 8 12 - - 0.0
23/11:00am 15.4 11.0 7.4 59 4.0 WSW 20 28 11 15 - - 0.0
23/10:30am 15.7 12.1 8.2 61 3.8 SW 17 24 9 13 - - 0.0
23/10:00am 14.2 10.9 8.2 67 3.0 WSW 15 22 8 12 - - 0.0
23/09:30am 13.1 12.3 9.5 79 1.8 SSE 4 6 2 3 - - 0.0
23/09:00am 11.1 9.7 8.7 85 1.2 NE 6 7 3 4 - - 0.2
23/08:30am 9.9 8.0 7.7 86 1.1 ENE 7 9 4 5 - - 0.2
23/08:00am 9.4 7.3 6.7 83 1.3 NE 7 9 4 5 - - 0.2
23/07:30am 9.8 7.6 5.4 74 2.0 ENE 6 7 3 4 - - 0.0
23/07:00am 10.9 8.3 5.9 71 2.3 N 9 13 5 7 - - 0.0
23/06:30am 10.6 8.0 6.0 73 2.1 N 9 13 5 7 - - 0.0
23/06:00am 10.4 7.7 5.6 72 2.2 N 9 15 5 8 - - 0.0
23/05:30am 9.9 7.0 4.9 71 2.3 NNE 9 15 5 8 - - 0.0
23/05:00am 9.6 7.1 4.6 71 2.2 NE 7 11 4 6 - - 0.0
23/04:30am 9.6 7.7 4.8 72 2.2 NE 4 6 2 3 - - 0.0
23/04:00am 9.5 7.1 4.5 71 2.2 NE 6 6 3 3 - - 0.0
23/03:30am 9.9 7.5 4.5 69 2.4 NNE 6 7 3 4 - - 0.0
23/03:00am 10.1 8.2 4.7 69 2.4 NNE 4 9 2 5 - - 0.0
23/02:30am 9.6 7.2 4.4 70 2.3 ENE 6 7 3 4 - - 0.0
23/02:00am 9.6 7.3 4.6 71 2.2 NE 6 9 3 5 - - 0.0
23/01:30am 9.4 6.9 4.8 73 2.1 ENE 7 9 4 5 - - 0.0
23/01:00am 9.3 6.8 4.5 72 2.1 ENE 7 9 4 5 - - 0.0
23/12:30am 9.6 7.1 4.6 71 2.2 ENE 7 9 4 5 - - 0.0
23/12:00am 10.0 7.6 5.2 72 2.2 ENE 7 9 4 5 - - 0.0
 
Date/Time
WST
Temp
°C
App
Temp
°C
Dew
Point
°C
Rel
Hum
%
Delta-T
°C
Wind Press
QNH
hPa
Press
MSL
hPa
Rain since
9am
mm
Dir  Spd
km/h
Gust
km/h
Spd
kts
Gust
kts
22/11:30pm 10.2 7.8 5.4 72 2.2 ENE 7 9 4 5 - - 0.0
22/11:00pm 10.4 8.0 5.4 71 2.3 ENE 7 7 4 4 - - 0.0
22/10:30pm 10.7 8.3 5.3 69 2.5 ESE 7 9 4 5 - - 0.0
22/10:00pm 10.7 8.4 5.0 68 2.6 ESE 6 7 3 4 - - 0.0
22/09:30pm 10.6 8.1 4.9 68 2.6 SSE 7 9 4 5 - - 0.0
22/09:00pm 10.9 8.4 4.8 66 2.8 E 7 11 4 6 - - 0.0
22/08:30pm 10.9 8.3 4.1 63 3.0 E 7 9 4 5 - - 0.0
22/08:00pm 11.2 8.8 4.4 63 3.1 ESE 6 7 3 4 - - 0.0
22/07:30pm 11.7 9.2 4.9 63 3.1 SE 7 9 4 5 - - 0.0
22/07:00pm 11.4 8.9 4.6 63 3.1 SE 7 11 4 6 - - 0.0
22/06:30pm 11.2 8.7 4.7 64 2.9 SSE 7 9 4 5 - - 0.0
22/06:00pm 11.5 9.0 4.7 63 3.1 S 7 9 4 5 - - 0.0
22/05:30pm 11.9 9.0 4.9 62 3.2 S 9 13 5 7 - - 0.0
22/05:00pm 13.2 10.6 4.4 55 4.0 S 7 13 4 7 - - 0.0
22/04:30pm 13.8 10.1 4.7 54 4.2 SSW 13 20 7 11 - - 0.0
22/04:00pm 13.9 10.3 4.8 54 4.2 SSW 13 20 7 11 - - 0.0
22/03:30pm 14.3 10.2 4.6 52 4.5 SSW 15 22 8 12 - - 0.0
22/03:00pm 14.3 10.2 4.3 51 4.6 SSW 15 20 8 11 - - 0.0
22/02:30pm 15.0 11.6 4.1 48 5.0 S 11 20 6 11 - - 0.0
22/02:00pm 14.6 10.7 3.4 47 5.1 SSE 13 20 7 11 - - 0.0
22/01:30pm 14.5 10.9 2.7 45 5.3 SSE 11 19 6 10 - - 0.0
22/01:00pm 14.4 10.8 3.2 47 5.0 SE 11 19 6 10 - - 0.0
22/12:30pm 14.1 10.6 3.6 49 4.8 SE 11 19 6 10 - - 0.0
22/12:00pm 14.0 10.2 4.0 51 4.6 SSE 13 20 7 11 - - 0.0
22/11:30am 13.6 10.1 3.4 50 4.6 SE 11 19 6 10 - - 0.0
22/11:00am 13.0 8.7 3.4 52 4.3 ESE 15 22 8 12 - - 0.0
22/10:30am 12.6 7.9 3.0 52 4.2 SE 17 26 9 14 - - 0.0
22/10:00am 12.0 7.8 3.8 57 3.7 SE 15 28 8 15 - - 0.0
22/09:30am 11.8 8.1 4.3 60 3.4 ESE 13 20 7 11 - - 0.0
22/09:00am 10.8 7.8 4.0 63 3.0 SE 9 19 5 10 - - 4.0
22/08:30am 10.5 7.2 4.4 66 2.7 ESE 11 20 6 11 - - 4.0
22/08:00am 9.4 6.6 5.0 74 2.0 ESE 9 11 5 6 - - 4.0
22/07:30am 9.0 6.1 4.8 75 1.9 SE 9 15 5 8 - - 4.0
22/07:00am 8.9 6.1 5.3 78 1.6 SE 9 13 5 7 - - 4.0
22/06:30am 9.3 5.9 5.7 78 1.6 SE 13 22 7 12 - - 4.0
22/06:00am 10.0 7.1 6.7 80 1.5 SE 11 19 6 10 - - 4.0
22/05:30am 10.0 7.2 6.9 81 1.5 ESE 11 15 6 8 - - 4.0
22/05:00am 10.0 7.0 7.6 85 1.1 SE 13 20 7 11 - - 4.0
22/04:30am 10.4 6.5 7.1 80 1.6 SE 17 30 9 16 - - 4.0
22/04:00am 11.8 8.6 6.7 71 2.4 SE 13 22 7 12 - - 4.0
22/03:30am 12.5 8.7 7.4 71 2.5 S 17 28 9 15 - - 4.0
22/03:00am 12.6 8.1 7.1 69 2.7 S 20 35 11 19 - - 4.0
22/02:33am 13.3 7.4 7.7 69 2.8 SSW 28 46 15 25 - - 4.0
22/02:30am 13.6 7.4 7.8 68 2.9 SSW 30 46 16 25 - - 4.0
22/02:27am 14.2 8.3 7.3 63 3.4 SSW 28 46 15 25 - - 4.0
22/02:00am 14.0 8.3 6.8 62 3.5 SSW 26 37 14 20 - - 4.0
22/01:49am 14.0 7.9 6.8 62 3.5 SW 28 48 15 26 - - 4.0
22/01:30am 14.6 7.5 5.7 55 4.2 SW 32 44 17 24 - - 4.0
22/01:00am 14.7 7.7 6.0 56 4.2 SW 32 50 17 27 - - 4.0
22/12:30am 14.7 7.9 7.5 62 3.6 SW 33 46 18 25 - - 4.0
22/12:00am 14.9 7.6 7.0 59 3.9 SW 35 52 19 28 - - 4.0
 
Date/Time
WST
Temp
°C
App
Temp
°C
Dew
Point
°C
Rel
Hum
%
Delta-T
°C
Wind Press
QNH
hPa
Press
MSL
hPa
Rain since
9am
mm
Dir  Spd
km/h
Gust
km/h
Spd
kts
Gust
kts
21/11:50pm 14.7 8.7 8.6 67 3.1 SW 30 50 16 27 - - 4.0
21/11:30pm 14.7 8.5 9.3 70 2.8 SW 32 46 17 25 - - 4.0
21/11:00pm 14.8 7.4 8.5 66 3.2 WSW 37 50 20 27 - - 4.0
21/10:30pm 14.8 7.8 8.3 65 3.3 WSW 35 52 19 28 - - 4.0
21/10:00pm 14.8 7.0 8.3 65 3.3 WSW 39 52 21 28 - - 4.0
21/09:34pm 13.8 7.5 9.0 73 2.4 WSW 32 50 17 27 - - 4.0
21/09:30pm 13.7 7.7 10.1 79 1.9 WSW 32 48 17 26 - - 4.0
21/09:06pm 14.3 9.3 10.9 80 1.8 W 28 52 15 28 - - 3.8
21/09:00pm 13.8 9.5 10.8 82 1.6 W 24 32 13 17 - - 3.8
21/08:30pm 13.3 7.2 10.3 82 1.6 WSW 33 50 18 27 - - 3.8
21/08:23pm 13.3 7.4 10.3 82 1.6 WSW 32 50 17 27 - - 3.8
21/08:15pm 14.3 8.3 10.1 76 2.2 WSW 32 46 17 25 - - 3.6
21/08:00pm 14.0 7.0 9.8 76 2.2 W 37 59 20 32 - - 3.6
21/07:37pm 14.5 7.7 9.3 71 2.7 W 35 57 19 31 - - 3.6
21/07:30pm 14.2 7.1 9.4 73 2.5 W 37 52 20 28 - - 3.6
21/07:00pm 13.0 4.9 10.2 83 1.4 WNW 43 61 23 33 - - 3.6
21/06:47pm 13.6 6.6 9.8 78 2.0 W 37 57 20 31 - - 3.6
21/06:37pm 13.0 6.1 10.2 83 1.4 WNW 37 57 20 31 - - 3.6
21/06:30pm 13.1 7.2 11.0 87 1.1 WNW 33 56 18 30 - - 3.6
21/06:05pm 14.2 7.2 9.8 75 2.3 WNW 37 57 20 31 - - 2.8
21/06:00pm 13.8 7.4 9.5 75 2.2 WNW 33 50 18 27 - - 2.8
21/05:30pm 12.2 5.8 9.2 82 1.5 WNW 33 48 18 26 - - 2.8
21/05:00pm 13.0 5.6 8.5 74 2.2 W 37 54 20 29 - - 2.6
21/04:30pm 13.6 6.9 7.4 66 3.0 WNW 32 48 17 26 - - 2.4
21/04:00pm 15.0 8.9 6.6 57 4.1 W 28 39 15 21 - - 2.4
21/03:30pm 13.8 6.6 4.9 55 4.1 W 32 46 17 25 - - 2.4
21/03:00pm 13.8 8.3 5.7 58 3.8 W 24 33 13 18 - - 2.4
21/02:30pm 14.6 8.7 4.0 49 4.9 WSW 24 35 13 19 - - 2.4
21/02:00pm 14.5 8.4 5.0 53 4.5 WSW 26 41 14 22 - - 2.4
21/01:30pm 14.1 7.5 6.0 58 3.9 WSW 30 44 16 24 - - 2.4
21/01:00pm 14.1 8.0 6.5 60 3.7 WSW 28 41 15 22 - - 2.4
21/12:49pm 14.0 8.0 7.1 63 3.4 SW 28 39 15 21 - - 2.4
21/12:30pm 12.5 11.2 9.1 80 1.7 NW 6 9 3 5 - - 2.4
21/12:00pm 12.1 11.2 10.5 90 0.8 NW 6 9 3 5 - - 2.4
21/11:30am 12.4 11.9 12.1 98 0.2 NW 6 11 3 6 - - 2.4
21/11:00am 11.5 11.5 11.2 98 0.2 N 2 6 1 3 - - 2.4
21/10:30am 10.3 9.0 10.0 98 0.2 E 7 13 4 7 - - 2.4
21/10:00am 8.8 6.8 8.5 98 0.1 ESE 9 17 5 9 - - 2.2
21/09:30am 8.7 5.5 8.4 98 0.1 SE 15 22 8 12 - - 1.0
21/09:00am 8.8 5.6 8.5 98 0.1 SE 15 28 8 15 - - 23.2
21/08:30am 9.0 5.5 8.7 98 0.1 SE 17 30 9 16 - - 22.4
21/08:00am 9.2 6.1 8.9 98 0.1 SSE 15 22 8 12 - - 22.2
21/07:30am 9.5 6.1 9.2 98 0.1 SSE 17 33 9 18 - - 20.2
21/07:00am 10.7 7.7 10.5 99 0.1 SE 17 32 9 17 - - 17.0
21/06:30am 11.4 6.8 11.2 99 0.1 S 26 43 14 23 - - 17.0
21/06:06am 12.8 8.1 11.9 94 0.5 SW 28 50 15 27 - - 15.2
21/06:00am 14.0 9.4 11.2 83 1.5 WSW 26 37 14 20 - - 12.8
21/05:30am 14.1 9.1 11.1 82 1.6 W 28 44 15 24 - - 12.8
21/05:00am 13.6 8.4 11.7 88 1.0 W 30 43 16 23 - - 12.8
21/04:30am 12.7 9.2 12.2 97 0.3 W 22 43 12 23 - - 12.8
21/04:00am 12.5 5.7 11.9 96 0.3 WSW 39 61 21 33 - - 12.4
21/03:34am 13.6 8.1 12.5 93 0.6 W 33 54 18 29 - - 11.0
21/03:30am 13.5 8.2 12.4 93 0.6 W 32 48 17 26 - - 10.6
21/03:00am 14.3 8.8 12.5 89 1.0 WNW 33 43 18 23 - - 9.6
21/02:39am 14.4 10.3 13.8 96 0.3 WNW 28 46 15 25 - - 9.6
21/02:30am 13.6 10.4 13.1 97 0.3 WNW 22 33 12 18 - - 9.6
21/02:00am 14.0 8.9 13.1 94 0.5 WNW 32 44 17 24 - - 9.0
21/01:38am 14.0 10.9 13.4 96 0.3 NW 22 44 12 24 - - 8.2
21/01:30am 13.0 10.8 12.2 95 0.4 NNW 15 22 8 12 - - 8.2
21/01:00am 12.5 10.3 12.0 97 0.3 N 15 24 8 13 - - 8.2
21/12:30am 12.1 10.2 11.8 98 0.2 N 13 20 7 11 - - 8.2
21/12:00am 12.3 10.0 11.8 97 0.3 N 15 26 8 14 - - 3.2
 
Date/Time
WST
Temp
°C
App
Temp
°C
Dew
Point
°C
Rel
Hum
%
Delta-T
°C
Wind Press
QNH
hPa
Press
MSL
hPa
Rain since
9am
mm
Dir  Spd
km/h
Gust
km/h
Spd
kts
Gust
kts
20/11:30pm 12.5 10.6 11.9 96 0.3 N 13 20 7 11 - - 2.0
20/11:00pm 12.7 10.6 12.4 98 0.2 N 15 24 8 13 - - 2.0
20/10:30pm 12.7 11.4 12.4 98 0.2 N 11 19 6 10 - - 2.0
20/10:00pm 12.9 11.2 12.6 98 0.2 N 13 20 7 11 - - 2.0
20/09:30pm 12.9 11.6 12.4 97 0.3 N 11 19 6 10 - - 2.0
20/09:00pm 13.5 12.4 12.1 91 0.8 N 9 15 5 8 - - 1.2

Other Formats:

Comma delimited format used in spreadsheet applications
http://www.bom.gov.au/fwo/IDW60801/IDW60801.94614.axf

JavaScript Object Notation format (JSON) in row-major order
http://www.bom.gov.au/fwo/IDW60801/IDW60801.94614.json